Time;durP1;ratioP1;P1;durP2;ratioP2;P2;SDS_P1;SDS_P2;PMS_P1;PMS_P2;Temp;Humidity;BMP_temperature;BMP_pressure;BME280_temperature;BME280_humidity;BME280_pressure;Samples;Min_cycle;Max_cycle;Signal;HPM_P1;HPM_P2
2023/02/04 00:01:49;;;;;;;5.20;1.20;;;5.40;99.90;;;;;;5021848;28;20091;-73
2023/02/04 00:04:15;;;;;;;5.82;1.40;;;5.40;99.90;;;;;;5009368;28;20052;-76
2023/02/04 00:06:41;;;;;;;4.18;1.27;;;5.20;99.90;;;;;;5006547;28;20073;-73
2023/02/04 00:09:06;;;;;;;2.90;1.10;;;5.20;99.90;;;;;;5017773;28;20056;-72
2023/02/04 00:11:32;;;;;;;4.60;1.08;;;5.00;99.90;;;;;;5025421;28;20816;-73
2023/02/04 00:13:58;;;;;;;4.00;1.52;;;5.00;99.90;;;;;;5013291;28;20215;-74
2023/02/04 00:16:24;;;;;;;2.63;1.15;;;5.10;99.90;;;;;;5023662;28;20069;-73
2023/02/04 00:18:49;;;;;;;4.70;1.10;;;5.10;99.90;;;;;;5014159;28;20080;-73
2023/02/04 00:21:15;;;;;;;5.32;1.20;;;5.00;99.90;;;;;;5035087;28;20079;-73
2023/02/04 00:23:41;;;;;;;2.78;1.10;;;5.10;99.90;;;;;;5015221;28;20041;-73
2023/02/04 00:26:07;;;;;;;1.52;0.73;;;4.90;99.90;;;;;;5012204;28;20041;-73
2023/02/04 00:28:33;;;;;;;2.63;1.10;;;4.90;99.90;;;;;;5008868;28;20052;-73
2023/02/04 00:31:01;;;;;;;1.65;0.90;;;4.90;99.90;;;;;;5037552;28;20409;-73
2023/02/04 00:33:28;;;;;;;3.00;0.98;;;4.90;99.90;;;;;;5023454;28;20056;-73
2023/02/04 00:35:53;;;;;;;3.35;0.80;;;4.80;99.90;;;;;;5013637;28;20045;-73
2023/02/04 00:38:19;;;;;;;6.53;1.17;;;4.80;99.90;;;;;;5023114;28;20118;-73
2023/02/04 00:40:45;;;;;;;2.97;1.20;;;4.70;99.90;;;;;;5009387;28;20045;-73
2023/02/04 00:43:10;;;;;;;4.22;1.08;;;4.70;99.90;;;;;;5022814;28;20045;-72
2023/02/04 00:45:36;;;;;;;3.70;0.90;;;4.80;99.90;;;;;;5018278;28;20722;-73
2023/02/04 00:48:02;;;;;;;2.92;1.30;;;4.70;99.90;;;;;;5026180;28;20050;-73
2023/02/04 00:50:28;;;;;;;1.25;0.95;;;4.80;99.90;;;;;;5001102;28;20041;-73
2023/02/04 00:52:53;;;;;;;1.55;1.00;;;4.70;99.90;;;;;;5027560;28;20037;-72
2023/02/04 00:55:19;;;;;;;3.55;1.10;;;4.60;99.90;;;;;;5035351;28;20054;-73
2023/02/04 00:57:48;;;;;;;2.80;1.20;;;4.60;99.90;;;;;;5027119;28;20041;-73
2023/02/04 01:00:14;;;;;;;3.25;1.08;;;4.60;99.90;;;;;;5010054;28;20057;-72
2023/02/04 01:02:40;;;;;;;4.22;1.40;;;4.70;99.90;;;;;;5023603;28;20443;-72
2023/02/04 01:05:09;;;;;;;3.17;0.90;;;4.60;99.90;;;;;;5023150;28;20121;-72
2023/02/04 01:07:35;;;;;;;5.50;1.17;;;4.70;99.90;;;;;;5022699;28;20052;-73
2023/02/04 01:10:01;;;;;;;5.10;1.20;;;4.70;99.90;;;;;;5019539;28;20049;-73
2023/02/04 01:12:27;;;;;;;3.53;1.33;;;4.60;99.90;;;;;;5011184;28;20057;-74
2023/02/04 01:14:54;;;;;;;3.25;1.00;;;4.50;99.90;;;;;;4997026;28;20052;-73
2023/02/04 01:17:20;;;;;;;1.52;0.88;;;4.60;99.90;;;;;;5029584;28;20045;-73
2023/02/04 01:19:46;;;;;;;2.58;0.90;;;4.60;99.90;;;;;;5020103;28;20040;-73
2023/02/04 01:22:12;;;;;;;4.90;1.10;;;4.50;99.90;;;;;;5030986;28;20517;-74
2023/02/04 01:24:37;;;;;;;8.38;1.65;;;4.50;99.90;;;;;;5025402;28;20099;-73
2023/02/04 01:27:03;;;;;;;4.40;1.05;;;4.80;99.90;;;;;;5032022;28;20041;-73
2023/02/04 01:29:29;;;;;;;6.32;1.50;;;4.70;99.90;;;;;;5063187;28;20140;-73
2023/02/04 01:31:55;;;;;;;2.63;0.93;;;4.50;99.90;;;;;;5022794;28;20045;-73
2023/02/04 01:34:20;;;;;;;6.63;1.02;;;4.50;99.90;;;;;;5022859;28;20754;-72
2023/02/04 01:36:46;;;;;;;2.20;1.25;;;4.40;99.90;;;;;;4994077;28;20088;-73
2023/02/04 01:39:14;;;;;;;3.63;0.95;;;4.40;99.90;;;;;;5006453;28;20585;-73
2023/02/04 01:41:39;;;;;;;5.40;1.02;;;4.40;99.90;;;;;;5010227;28;20080;-73
2023/02/04 01:44:05;;;;;;;3.42;1.10;;;4.40;99.90;;;;;;5023376;28;20065;-73
2023/02/04 01:46:33;;;;;;;2.65;0.95;;;4.30;99.90;;;;;;5030174;28;20087;-75
2023/02/04 01:48:59;;;;;;;2.67;0.77;;;4.20;99.90;;;;;;5021418;28;20057;-73
2023/02/04 01:51:27;;;;;;;4.63;1.05;;;4.40;99.90;;;;;;5016802;28;20049;-73
2023/02/04 01:53:54;;;;;;;2.60;0.77;;;4.30;99.90;;;;;;4993865;28;20049;-73
2023/02/04 01:56:25;;;;;;;3.08;1.10;;;4.30;99.90;;;;;;5041281;28;20073;-73
2023/02/04 01:58:51;;;;;;;2.20;1.02;;;4.20;99.90;;;;;;5019623;28;20068;-73
2023/02/04 02:01:37;;;;;;;2.08;1.02;;;4.20;99.90;;;;;;5011982;28;20734;-73
2023/02/04 02:04:04;;;;;;;1.60;0.95;;;4.10;99.90;;;;;;5032742;28;20119;-73
2023/02/04 02:06:30;;;;;;;3.28;0.80;;;4.10;99.90;;;;;;5009909;28;20049;-73
2023/02/04 02:08:57;;;;;;;4.93;0.88;;;4.10;99.90;;;;;;5030349;28;20493;-73
2023/02/04 02:11:25;;;;;;;1.90;0.73;;;4.10;99.90;;;;;;5001010;28;20108;-73
2023/02/04 02:13:50;;;;;;;1.80;0.82;;;4.00;99.90;;;;;;5023837;28;20050;-73
2023/02/04 02:16:16;;;;;;;2.38;1.00;;;3.90;99.90;;;;;;5003733;28;20061;-74
2023/02/04 02:18:42;;;;;;;3.45;1.42;;;3.80;99.90;;;;;;5016323;28;20041;-73
2023/02/04 02:21:08;;;;;;;2.65;0.90;;;3.80;99.90;;;;;;5030980;28;20041;-71
2023/02/04 02:23:53;;;;;;;2.70;1.55;;;3.80;99.90;;;;;;5014719;28;20103;-73
2023/02/04 02:26:19;;;;;;;2.85;1.08;;;3.70;99.90;;;;;;5018686;28;20057;-74
2023/02/04 02:28:48;;;;;;;3.53;1.20;;;3.70;99.90;;;;;;5027054;28;20058;-74
2023/02/04 02:31:15;;;;;;;1.92;1.00;;;3.60;99.90;;;;;;5032910;28;20128;-74
2023/02/04 02:33:41;;;;;;;6.05;1.52;;;3.60;99.90;;;;;;5012906;28;20604;-74
2023/02/04 02:36:07;;;;;;;2.35;1.00;;;3.50;99.90;;;;;;4974214;28;20048;-74
2023/02/04 02:38:32;;;;;;;2.22;1.02;;;3.40;99.90;;;;;;5012344;28;20041;-74
2023/02/04 02:40:58;;;;;;;5.50;1.13;;;3.40;99.90;;;;;;5027297;28;20084;-74
2023/02/04 02:43:25;;;;;;;2.55;1.00;;;3.30;99.90;;;;;;5027558;28;20037;-74
2023/02/04 02:45:51;;;;;;;4.32;0.95;;;3.20;99.90;;;;;;5020877;28;20053;-74
2023/02/04 02:48:16;;;;;;;3.80;1.33;;;3.20;99.90;;;;;;5018851;28;20056;-74
2023/02/04 02:50:42;;;;;;;4.25;1.10;;;3.10;99.90;;;;;;5012670;28;20051;-74
2023/02/04 02:53:12;;;;;;;2.88;1.15;;;3.10;99.90;;;;;;5018732;28;20830;-74
2023/02/04 02:55:38;;;;;;;4.75;1.00;;;3.10;99.90;;;;;;4999244;28;20502;-74
2023/02/04 02:58:09;;;;;;;3.67;1.30;;;3.10;99.90;;;;;;5024176;28;20041;-74
2023/02/04 03:00:35;;;;;;;2.80;1.45;;;3.00;99.90;;;;;;5029464;28;20049;-73
2023/02/04 03:03:24;;;;;;;4.07;1.00;;;2.80;99.90;;;;;;5030150;28;20114;-75
2023/02/04 03:05:53;;;;;;;2.30;1.17;;;2.80;99.90;;;;;;5014198;28;20769;-74
2023/02/04 03:08:19;;;;;;;4.38;1.10;;;3.00;99.90;;;;;;5012542;28;20116;-74
2023/02/04 03:10:44;;;;;;;5.15;1.92;;;2.80;99.90;;;;;;5030074;28;20124;-73
2023/02/04 03:13:11;;;;;;;8.88;1.55;;;2.70;99.90;;;;;;4975803;28;20068;-72
2023/02/04 03:15:37;;;;;;;5.63;1.55;;;2.70;99.90;;;;;;5039426;28;20056;-72
2023/02/04 03:18:02;;;;;;;2.53;1.23;;;2.70;99.90;;;;;;5007902;28;20103;-73
2023/02/04 03:20:29;;;;;;;4.78;1.13;;;2.70;99.90;;;;;;5021525;28;20052;-73
2023/02/04 03:22:55;;;;;;;3.35;1.30;;;2.70;99.90;;;;;;5005804;28;20101;-73
2023/02/04 03:25:23;;;;;;;4.13;1.50;;;2.80;99.90;;;;;;5013166;28;20125;-73
2023/02/04 03:27:50;;;;;;;3.22;1.23;;;2.60;99.90;;;;;;5023247;28;20049;-72
2023/02/04 03:30:16;;;;;;;4.32;1.33;;;2.60;99.90;;;;;;5021491;28;20473;-72
2023/02/04 03:32:43;;;;;;;4.82;1.42;;;2.40;99.90;;;;;;5023852;28;20056;-73
2023/02/04 03:35:09;;;;;;;4.43;1.38;;;2.40;99.90;;;;;;5011354;28;20053;-72
2023/02/04 03:37:34;;;;;;;2.55;1.38;;;2.50;99.90;;;;;;5007099;28;20103;-73
2023/02/04 03:40:00;;;;;;;4.28;1.30;;;2.40;99.90;;;;;;5028829;28;20038;-73
2023/02/04 03:42:26;;;;;;;2.30;1.30;;;2.60;99.90;;;;;;5024274;28;20052;-73
2023/02/04 03:44:52;;;;;;;7.72;1.45;;;2.80;99.90;;;;;;5026102;28;20049;-73
2023/02/04 03:47:18;;;;;;;5.28;1.40;;;2.60;99.90;;;;;;4989195;28;20053;-73
2023/02/04 03:49:44;;;;;;;3.45;1.40;;;2.60;99.90;;;;;;5046720;28;20046;-73
2023/02/04 03:52:10;;;;;;;3.30;1.52;;;2.50;99.90;;;;;;5013024;28;20056;-74
2023/02/04 03:54:35;;;;;;;5.63;1.52;;;2.40;99.90;;;;;;5007532;28;20041;-73
2023/02/04 03:57:01;;;;;;;2.95;1.38;;;2.20;99.90;;;;;;5027284;28;20104;-73
2023/02/04 03:59:27;;;;;;;5.43;1.30;;;2.20;99.90;;;;;;5023233;28;20045;-73
2023/02/04 04:01:53;;;;;;;5.03;1.30;;;2.30;99.90;;;;;;5017850;28;20057;-73
2023/02/04 04:04:19;;;;;;;3.83;1.40;;;2.40;99.90;;;;;;5011344;28;20057;-73
2023/02/04 04:06:45;;;;;;;2.03;1.40;;;2.50;99.90;;;;;;5014942;28;20077;-73
2023/02/04 04:09:10;;;;;;;3.30;1.52;;;2.30;99.90;;;;;;4990873;28;20045;-73
2023/02/04 04:11:36;;;;;;;3.38;1.63;;;2.40;99.90;;;;;;5017450;28;20133;-73
2023/02/04 04:14:02;;;;;;;5.82;1.90;;;2.40;99.90;;;;;;5022191;28;20111;-73
2023/02/04 04:16:29;;;;;;;3.33;1.60;;;2.40;99.90;;;;;;5024630;28;20053;-73
2023/02/04 04:18:55;;;;;;;3.65;1.50;;;2.40;99.90;;;;;;5029993;28;20045;-73
2023/02/04 04:21:20;;;;;;;3.50;1.70;;;2.40;99.90;;;;;;5029000;28;20099;-73
2023/02/04 04:23:46;;;;;;;3.90;1.65;;;2.30;99.90;;;;;;4986212;28;20050;-73
2023/02/04 04:26:12;;;;;;;6.13;1.60;;;2.20;99.90;;;;;;5017265;28;20064;-73
2023/02/04 04:28:38;;;;;;;4.75;1.80;;;2.30;99.90;;;;;;5006478;28;20052;-73
2023/02/04 04:31:03;;;;;;;7.57;1.65;;;2.30;99.90;;;;;;5008205;28;20045;-73
2023/02/04 04:33:29;;;;;;;2.45;1.38;;;2.10;99.90;;;;;;4996947;28;20099;-73
2023/02/04 04:35:55;;;;;;;5.78;2.05;;;2.20;99.90;;;;;;5017265;28;20401;-73
2023/02/04 04:38:21;;;;;;;3.33;1.45;;;1.80;99.90;;;;;;5015768;28;20049;-73
2023/02/04 04:40:46;;;;;;;5.30;1.45;;;1.70;99.90;;;;;;5007080;28;20095;-73
2023/02/04 04:43:12;;;;;;;3.55;1.63;;;1.80;99.90;;;;;;5012613;28;20060;-73
2023/02/04 04:45:38;;;;;;;4.43;2.00;;;1.80;99.90;;;;;;5012276;28;20045;-73
2023/02/04 04:48:04;;;;;;;3.25;1.52;;;1.90;99.90;;;;;;5000703;28;20046;-73
2023/02/04 04:50:29;;;;;;;4.18;1.70;;;1.90;99.90;;;;;;5005377;28;20074;-73
2023/02/04 04:52:55;;;;;;;6.18;1.73;;;2.00;99.90;;;;;;5028342;28;20045;-73
2023/02/04 04:55:23;;;;;;;5.03;2.45;;;2.00;99.90;;;;;;5008113;28;20057;-73
2023/02/04 04:57:50;;;;;;;4.13;1.90;;;2.00;99.90;;;;;;5015096;28;20371;-73
2023/02/04 05:00:19;;;;;;;3.78;1.75;;;1.80;99.90;;;;;;5026839;28;20045;-73
2023/02/04 05:02:45;;;;;;;3.58;1.80;;;1.90;99.90;;;;;;4996076;28;20061;-73
2023/02/04 05:05:12;;;;;;;4.38;2.25;;;2.00;99.90;;;;;;5010007;28;20073;-73
2023/02/04 05:07:38;;;;;;;4.78;2.33;;;2.10;99.90;;;;;;5011225;28;20045;-73
2023/02/04 05:10:03;;;;;;;4.95;1.90;;;2.20;99.90;;;;;;5019075;28;20046;-73
2023/02/04 05:12:29;;;;;;;3.45;2.10;;;2.20;99.90;;;;;;4992891;28;20128;-73
2023/02/04 05:14:55;;;;;;;5.45;1.95;;;2.20;99.90;;;;;;5005524;28;20060;-74
2023/02/04 05:17:21;;;;;;;10.70;2.88;;;2.20;99.90;;;;;;5002068;28;20041;-74
2023/02/04 05:19:46;;;;;;;4.03;1.85;;;2.20;99.90;;;;;;5026971;28;20049;-73
2023/02/04 05:22:12;;;;;;;3.33;2.00;;;2.10;99.90;;;;;;5030328;28;20054;-73
2023/02/04 05:24:38;;;;;;;3.10;1.50;;;2.20;99.90;;;;;;5023592;28;20139;-74
2023/02/04 05:27:04;;;;;;;5.28;1.90;;;2.30;99.90;;;;;;5036830;28;20537;-74
2023/02/04 05:29:30;;;;;;;3.20;2.00;;;2.30;99.90;;;;;;5024879;28;20056;-74
2023/02/04 05:31:55;;;;;;;5.63;1.80;;;2.40;99.90;;;;;;5012730;28;20083;-74
2023/02/04 05:34:21;;;;;;;4.10;1.98;;;2.40;99.90;;;;;;5026597;28;20148;-73
2023/02/04 05:36:47;;;;;;;4.05;1.88;;;2.40;99.90;;;;;;5016235;28;20470;-74
2023/02/04 05:39:12;;;;;;;3.53;1.60;;;2.40;99.90;;;;;;4996804;28;20064;-74
2023/02/04 05:41:38;;;;;;;4.00;2.10;;;2.30;99.90;;;;;;5034846;28;20077;-74
2023/02/04 05:44:04;;;;;;;6.80;2.08;;;2.30;99.90;;;;;;5016484;28;20076;-73
2023/02/04 05:46:30;;;;;;;4.97;2.10;;;2.40;99.90;;;;;;5011935;28;20114;-73
2023/02/04 05:48:56;;;;;;;4.57;2.00;;;2.40;99.90;;;;;;5042005;28;20074;-74
2023/02/04 05:51:22;;;;;;;5.22;1.80;;;2.40;99.90;;;;;;5027684;28;20088;-73
2023/02/04 05:53:48;;;;;;;5.05;2.17;;;2.40;99.90;;;;;;5017674;28;20068;-74
2023/02/04 05:56:14;;;;;;;4.57;2.20;;;2.40;99.90;;;;;;5032052;28;20346;-73
2023/02/04 05:58:40;;;;;;;2.50;1.90;;;2.40;99.90;;;;;;5034040;28;20140;-74
2023/02/04 06:01:05;;;;;;;4.28;1.90;;;2.60;99.90;;;;;;5030382;28;20052;-74
2023/02/04 06:03:31;;;;;;;5.38;2.53;;;2.40;99.90;;;;;;5007136;28;20081;-74
2023/02/04 06:05:57;;;;;;;7.88;2.28;;;2.40;99.90;;;;;;5009663;28;20057;-73
2023/02/04 06:08:23;;;;;;;4.93;2.10;;;2.40;99.90;;;;;;5004666;28;20113;-73
2023/02/04 06:10:49;;;;;;;4.30;2.15;;;2.60;99.90;;;;;;4989403;28;20050;-73
2023/02/04 06:13:15;;;;;;;4.25;2.20;;;2.70;99.90;;;;;;5044794;28;20061;-74
2023/02/04 06:15:41;;;;;;;3.40;2.10;;;2.70;99.90;;;;;;5010207;28;20081;-73
2023/02/04 06:18:06;;;;;;;6.18;2.08;;;2.60;99.90;;;;;;5018127;28;20061;-73
2023/02/04 06:20:32;;;;;;;7.20;2.75;;;2.40;99.90;;;;;;5016356;28;20049;-73
2023/02/04 06:22:58;;;;;;;6.15;2.25;;;2.50;99.90;;;;;;5027528;28;20041;-74
2023/02/04 06:25:24;;;;;;;3.78;2.50;;;2.50;99.90;;;;;;5017091;28;20460;-73
2023/02/04 06:27:50;;;;;;;7.30;2.20;;;2.50;99.90;;;;;;5025169;28;20045;-73
2023/02/04 06:30:16;;;;;;;6.03;2.17;;;2.50;99.90;;;;;;5016176;28;20165;-73
2023/02/04 06:32:42;;;;;;;5.20;2.50;;;2.40;99.90;;;;;;5008661;28;20346;-73
2023/02/04 06:35:11;;;;;;;5.47;2.45;;;2.60;99.90;;;;;;5026513;28;20152;-73
2023/02/04 06:37:37;;;;;;;4.97;2.35;;;2.80;99.90;;;;;;5032618;28;20050;-73
2023/02/04 06:40:04;;;;;;;6.00;2.22;;;2.70;99.90;;;;;;5049856;28;20034;-73
2023/02/04 06:42:30;;;;;;;5.25;2.70;;;2.60;99.90;;;;;;5027082;28;20136;-73
2023/02/04 06:44:55;;;;;;;5.82;2.55;;;2.70;99.90;;;;;;5027564;28;20124;-73
2023/02/04 06:47:21;;;;;;;4.80;2.38;;;2.60;99.90;;;;;;4993455;28;20089;-73
2023/02/04 06:49:47;;;;;;;4.32;2.50;;;2.60;99.90;;;;;;5015194;28;20136;-73
2023/02/04 06:52:12;;;;;;;6.00;2.45;;;2.40;99.90;;;;;;5018650;28;20050;-73
2023/02/04 06:54:38;;;;;;;6.18;2.83;;;2.30;99.90;;;;;;5010176;28;20041;-73
2023/02/04 06:57:06;;;;;;;4.47;2.47;;;2.30;99.90;;;;;;5018269;28;20550;-73
2023/02/04 06:59:36;;;;;;;4.75;2.90;;;2.20;99.90;;;;;;5016424;28;20037;-73
2023/02/04 07:02:02;;;;;;;7.00;2.83;;;2.20;99.90;;;;;;5015411;28;20141;-73
2023/02/04 07:04:28;;;;;;;8.55;2.80;;;2.20;99.90;;;;;;4987262;28;20790;-73
2023/02/04 07:06:54;;;;;;;10.15;3.13;;;2.20;99.90;;;;;;5000055;28;20137;-73
2023/02/04 07:09:20;;;;;;;5.35;2.70;;;2.30;99.90;;;;;;5023510;28;20609;-73
2023/02/04 07:11:46;;;;;;;4.93;2.80;;;2.40;99.90;;;;;;5015833;28;20053;-73
2023/02/04 07:14:12;;;;;;;5.45;2.60;;;2.30;99.90;;;;;;5019623;28;20053;-73
2023/02/04 07:16:37;;;;;;;4.65;2.22;;;2.20;99.90;;;;;;5019658;28;20042;-73
2023/02/04 07:19:03;;;;;;;3.85;2.50;;;2.20;99.90;;;;;;5059146;28;20034;-74
2023/02/04 07:21:29;;;;;;;6.35;3.05;;;2.00;99.90;;;;;;5031586;28;20493;-73
2023/02/04 07:23:55;;;;;;;5.03;2.80;;;1.90;99.90;;;;;;5009358;28;20041;-73
2023/02/04 07:26:21;;;;;;;5.85;3.30;;;1.90;99.90;;;;;;5021178;28;20092;-73
2023/02/04 07:28:47;;;;;;;7.57;3.03;;;1.90;99.90;;;;;;5013141;28;20045;-73
2023/02/04 07:31:16;;;;;;;5.60;3.05;;;2.00;99.90;;;;;;5012118;28;20045;-73
2023/02/04 07:33:42;;;;;;;5.05;2.95;;;1.90;99.90;;;;;;5011547;28;20045;-72
2023/02/04 07:36:08;;;;;;;6.55;3.25;;;2.00;99.90;;;;;;5005941;28;20441;-72
2023/02/04 07:38:34;;;;;;;7.03;3.28;;;1.90;99.90;;;;;;5024432;28;20044;-72
2023/02/04 07:40:59;;;;;;;7.63;3.50;;;1.90;99.90;;;;;;5020512;28;20054;-73
2023/02/04 07:43:25;;;;;;;6.68;3.08;;;2.00;99.90;;;;;;5009270;28;20037;-73
2023/02/04 07:45:51;;;;;;;7.32;3.15;;;1.90;99.90;;;;;;5028808;28;20049;-74
2023/02/04 07:48:18;;;;;;;6.82;3.15;;;1.90;99.90;;;;;;5007851;28;20095;-74
2023/02/04 07:50:44;;;;;;;4.75;3.08;;;1.90;99.90;;;;;;4995274;28;20533;-75
2023/02/04 07:53:09;;;;;;;5.38;2.95;;;2.10;99.90;;;;;;5025711;28;20061;-73
2023/02/04 07:55:35;;;;;;;5.15;2.70;;;2.10;99.90;;;;;;5003547;28;20045;-74
2023/02/04 07:58:02;;;;;;;10.07;3.42;;;2.00;99.90;;;;;;5029041;28;20076;-74
2023/02/04 08:00:29;;;;;;;7.00;3.17;;;2.10;99.90;;;;;;5012660;28;20045;-74
2023/02/04 08:02:55;;;;;;;8.13;3.83;;;2.20;99.90;;;;;;5001758;28;20049;-74
2023/02/04 08:05:21;;;;;;;7.10;3.58;;;2.30;99.90;;;;;;5023181;28;20118;-74
2023/02/04 08:07:50;;;;;;;9.20;3.60;;;2.30;99.90;;;;;;5010606;28;20441;-74
2023/02/04 08:10:17;;;;;;;10.55;3.85;;;2.20;99.90;;;;;;5029058;28;20041;-73
2023/02/04 08:12:43;;;;;;;7.05;3.03;;;2.40;99.90;;;;;;5019030;28;20516;-74
2023/02/04 08:15:10;;;;;;;7.40;3.22;;;2.50;99.90;;;;;;5015085;28;20386;-74
2023/02/04 08:17:35;;;;;;;4.70;2.83;;;2.50;99.90;;;;;;5027356;28;20539;-73
2023/02/04 08:20:01;;;;;;;6.63;3.40;;;2.50;99.90;;;;;;5030802;28;20144;-73
2023/02/04 08:22:27;;;;;;;11.02;3.65;;;2.60;99.90;;;;;;5012876;28;20052;-73
2023/02/04 08:24:53;;;;;;;6.47;3.35;;;2.60;99.90;;;;;;5029259;28;20049;-73
2023/02/04 08:27:19;;;;;;;5.85;3.33;;;2.60;99.90;;;;;;5023106;28;20073;-73
2023/02/04 08:29:44;;;;;;;8.57;3.58;;;2.50;99.90;;;;;;5026759;28;20056;-74
2023/02/04 08:32:12;;;;;;;6.03;3.55;;;2.60;99.90;;;;;;5024395;28;20042;-73
2023/02/04 08:34:38;;;;;;;7.60;3.50;;;2.50;99.90;;;;;;5012780;28;20041;-73
2023/02/04 08:37:04;;;;;;;7.05;3.40;;;2.60;99.90;;;;;;5034381;28;20286;-73
2023/02/04 08:39:31;;;;;;;6.25;3.20;;;2.70;99.90;;;;;;5031694;28;20045;-73
2023/02/04 08:41:57;;;;;;;6.93;3.17;;;2.70;99.90;;;;;;5013491;28;20046;-73
2023/02/04 08:44:23;;;;;;;6.72;4.05;;;2.70;99.90;;;;;;5034731;28;20077;-73
2023/02/04 08:46:49;;;;;;;8.35;3.90;;;2.80;99.90;;;;;;5007863;28;20167;-73
2023/02/04 08:49:15;;;;;;;6.60;3.40;;;3.00;99.90;;;;;;4992178;28;20049;-74
2023/02/04 08:51:40;;;;;;;7.22;3.10;;;3.10;99.90;;;;;;5032228;28;20045;-74
2023/02/04 08:54:06;;;;;;;7.15;3.20;;;3.10;99.90;;;;;;5030782;28;20045;-74
2023/02/04 08:56:34;;;;;;;6.30;2.85;;;3.10;99.90;;;;;;5002305;28;20053;-73
2023/02/04 08:59:01;;;;;;;6.10;3.17;;;3.00;99.90;;;;;;5008709;28;20128;-73
2023/02/04 09:01:27;;;;;;;7.18;2.95;;;3.20;99.90;;;;;;5016866;28;20293;-73
2023/02/04 09:03:52;;;;;;;5.32;2.83;;;3.40;99.90;;;;;;5051144;28;20715;-74
2023/02/04 09:06:18;;;;;;;6.28;3.03;;;3.40;99.90;;;;;;5034777;28;20050;-73
2023/02/04 09:08:44;;;;;;;5.10;2.30;;;3.50;99.90;;;;;;5011403;28;20408;-73
2023/02/04 09:11:11;;;;;;;7.65;2.75;;;3.50;99.90;;;;;;5027241;28;20068;-74
2023/02/04 09:13:37;;;;;;;7.55;2.97;;;3.50;99.90;;;;;;5034331;28;20549;-74
2023/02/04 09:16:03;;;;;;;10.45;2.90;;;3.40;99.90;;;;;;5017944;28;20057;-74
2023/02/04 09:18:31;;;;;;;5.53;2.47;;;3.50;99.90;;;;;;5044815;28;20518;-74
2023/02/04 09:20:57;;;;;;;7.68;2.38;;;3.60;99.90;;;;;;5034418;28;20033;-74
2023/02/04 09:23:23;;;;;;;5.53;2.67;;;3.70;99.90;;;;;;5032751;28;20103;-74
2023/02/04 09:25:49;;;;;;;5.95;2.33;;;3.80;99.90;;;;;;5029058;28;20042;-73
2023/02/04 09:28:15;;;;;;;5.72;2.03;;;3.90;99.90;;;;;;5010946;28;20517;-73
2023/02/04 09:30:44;;;;;;;7.07;2.30;;;4.00;99.90;;;;;;5026917;28;20076;-74
2023/02/04 09:33:11;;;;;;;7.20;2.20;;;3.90;99.90;;;;;;5033266;28;20164;-74
2023/02/04 09:35:38;;;;;;;5.18;2.00;;;3.90;99.90;;;;;;5027910;28;20053;-73
2023/02/04 09:38:04;;;;;;;7.13;2.03;;;4.00;99.90;;;;;;5031337;28;20042;-75
2023/02/04 09:40:33;;;;;;;3.83;2.15;;;4.10;99.90;;;;;;5023993;28;20452;-74
2023/02/04 09:42:59;;;;;;;3.97;1.75;;;4.20;99.90;;;;;;5027350;28;20095;-73
2023/02/04 09:45:27;;;;;;;4.68;1.60;;;4.30;99.90;;;;;;5023777;28;20144;-73
2023/02/04 09:47:53;;;;;;;3.65;1.42;;;4.30;99.90;;;;;;5047383;28;20358;-73
2023/02/04 09:50:23;;;;;;;3.42;1.73;;;4.30;99.90;;;;;;5010737;28;20451;-73
2023/02/04 09:52:50;;;;;;;4.70;1.70;;;4.50;99.90;;;;;;5030495;28;20049;-75
2023/02/04 09:55:17;;;;;;;3.83;1.30;;;4.60;99.90;;;;;;4999488;28;20482;-73
2023/02/04 09:57:43;;;;;;;3.40;1.50;;;4.80;99.90;;;;;;5010651;28;20081;-73
2023/02/04 10:00:18;;;;;;;5.97;1.73;;;4.90;99.90;;;;;;5030795;28;20112;-73
2023/02/04 10:02:43;;;;;;;4.95;1.70;;;5.10;99.90;;;;;;5010465;28;20102;-75
2023/02/04 10:05:14;;;;;;;4.20;1.20;;;5.10;99.90;;;;;;5027613;28;20562;-73
2023/02/04 10:07:40;;;;;;;4.18;1.17;;;5.20;99.90;;;;;;5017447;28;20049;-75
2023/02/04 10:10:08;;;;;;;3.63;1.25;;;5.70;99.90;;;;;;5017802;28;20056;-76
2023/02/04 10:12:34;;;;;;;3.97;1.10;;;6.10;99.90;;;;;;4992860;28;20116;-76
2023/02/04 10:15:01;;;;;;;3.72;1.20;;;6.50;99.90;;;;;;5042226;28;20057;-76
2023/02/04 10:17:26;;;;;;;3.20;1.20;;;6.70;99.90;;;;;;5016132;28;20080;-76
2023/02/04 10:19:53;;;;;;;4.82;1.20;;;6.60;99.90;;;;;;5029247;28;20625;-75
2023/02/04 10:22:22;;;;;;;3.38;1.02;;;6.60;99.90;;;;;;5009915;28;20053;-76
2023/02/04 10:24:48;;;;;;;3.88;1.40;;;6.90;99.90;;;;;;5025618;28;20666;-76
2023/02/04 10:27:16;;;;;;;4.80;1.40;;;7.30;99.90;;;;;;5031418;28;20045;-76
2023/02/04 10:29:44;;;;;;;;;;;7.50;99.90;;;;;;5011423;28;20682;-76
2023/02/04 10:32:30;;;;;;;5.50;1.37;;;7.40;99.90;;;;;;5058418;28;19967;-76
2023/02/04 10:34:58;;;;;;;4.30;1.25;;;7.30;99.90;;;;;;5010833;28;20296;-76
2023/02/04 10:37:23;;;;;;;2.63;1.05;;;7.60;99.90;;;;;;5006692;28;20049;-76
2023/02/04 10:39:50;;;;;;;2.08;1.05;;;7.60;99.90;;;;;;4995722;28;20049;-76
2023/02/04 10:42:23;;;;;;;3.90;1.25;;;8.00;99.90;;;;;;5027304;28;20045;-76
2023/02/04 10:44:49;;;;;;;4.97;1.52;;;8.20;99.90;;;;;;5003569;28;20577;-76
2023/02/04 10:47:20;;;;;;;6.05;1.10;;;8.20;99.90;;;;;;5036049;28;20040;-75
2023/02/04 10:50:01;;;;;;;3.05;1.30;;;8.50;99.90;;;;;;5043644;28;20453;-74
2023/02/04 10:52:36;;;;;;;3.42;1.45;;;8.60;99.90;;;;;;5023293;28;20698;-74
2023/02/04 10:55:03;;;;;;;4.50;1.10;;;9.00;99.90;;;;;;5015480;28;20065;-74
2023/02/04 10:57:29;;;;;;;1.35;0.70;;;9.40;99.90;;;;;;5016193;28;20045;-73
2023/02/04 11:00:00;;;;;;;1.85;0.80;;;9.40;99.90;;;;;;5002258;28;20103;-76
2023/02/04 11:02:45;;;;;;;3.45;1.52;;;9.50;99.90;;;;;;5030775;28;20103;-75
2023/02/04 11:05:19;;;;;;;2.78;1.00;;;9.80;99.90;;;;;;5019434;28;20136;-76
2023/02/04 11:07:45;;;;;;;2.35;0.98;;;10.40;99.90;;;;;;5031348;28;20037;-75
2023/02/04 11:10:14;;;;;;;2.20;1.05;;;10.60;99.00;;;;;;5031583;28;20279;-76
2023/02/04 11:12:43;;;;;;;3.00;1.20;;;10.00;97.40;;;;;;5029229;28;20411;-75
2023/02/04 11:15:40;;;;;;;5.22;1.10;;;10.10;97.20;;;;;;5031682;28;20049;-74
2023/02/04 11:18:08;;;;;;;4.07;0.95;;;9.50;95.60;;;;;;5019309;28;20506;-74
2023/02/04 11:20:35;;;;;;;3.42;1.20;;;9.60;97.40;;;;;;5018762;28;20041;-75
2023/02/04 11:23:26;;;;;;;7.72;3.60;;;10.50;88.60;;;;;;5021479;28;20096;-74
2023/02/04 11:26:02;;;;;;;2.50;1.00;;;9.70;89.40;;;;;;5042883;28;20054;-73
2023/02/04 11:28:41;;;;;;;2.58;1.00;;;9.90;93.00;;;;;;5010102;28;20045;-74
2023/02/04 11:31:25;;;;;;;2.47;1.10;;;13.50;69.40;;;;;;5038267;28;20045;-75
2023/02/04 11:34:12;;;;;;;2.97;1.05;;;16.30;59.20;;;;;;5025414;28;20049;-74
2023/02/04 11:37:08;;;;;;;2.22;0.93;;;17.90;51.70;;;;;;5018497;28;20045;-75
2023/02/04 11:39:46;;;;;;;2.20;0.85;;;17.80;49.40;;;;;;5025456;28;20052;-74
2023/02/04 11:42:24;;;;;;;4.78;0.80;;;18.10;46.20;;;;;;5038037;28;20041;-74
2023/02/04 11:44:54;;;;;;;3.22;1.00;;;15.70;52.70;;;;;;5019768;28;20111;-75
2023/02/04 11:47:21;;;;;;;3.17;0.90;;;17.90;44.70;;;;;;5030396;28;20045;-74
2023/02/04 11:49:53;;;;;;;3.30;1.00;;;12.40;56.90;;;;;;4989747;28;20049;-73
2023/02/04 11:52:19;;;;;;;2.03;0.65;;;10.20;65.10;;;;;;5004912;28;20042;-73
2023/02/04 11:54:52;;;;;;;2.53;0.82;;;9.40;75.40;;;;;;5000519;28;20041;-73
2023/02/04 11:57:19;;;;;;;2.30;0.98;;;9.30;83.30;;;;;;5025044;28;20066;-73
2023/02/04 11:59:44;;;;;;;2.13;0.90;;;9.20;86.50;;;;;;5019353;28;20073;-74
2023/02/04 12:02:18;;;;;;;1.65;0.82;;;10.20;77.50;;;;;;5034247;28;20096;-74
2023/02/04 12:05:08;;;;;;;2.30;0.80;;;10.20;78.20;;;;;;5014305;28;20038;-73
2023/02/04 12:07:34;;;;;;;2.38;1.00;;;9.20;79.10;;;;;;5027330;28;20042;-73
2023/02/04 12:10:10;;;;;;;1.92;1.00;;;8.60;86.30;;;;;;5009756;28;20069;-73
2023/02/04 12:12:41;;;;;;;2.58;0.80;;;7.20;91.60;;;;;;5007306;28;20068;-73
2023/02/04 12:15:24;;;;;;;3.25;1.20;;;7.60;93.20;;;;;;5023426;28;20045;-73
2023/02/04 12:18:07;;;;;;;3.05;1.08;;;7.50;93.60;;;;;;5010862;28;20045;-73
2023/02/04 12:20:33;;;;;;;1.55;0.73;;;7.10;94.50;;;;;;5027022;28;20073;-73
2023/02/04 12:22:59;;;;;;;4.38;1.08;;;7.50;95.30;;;;;;5009595;28;20046;-72
2023/02/04 12:25:25;;;;;;;3.80;1.00;;;7.40;95.50;;;;;;5031316;28;20056;-73
2023/02/04 12:27:54;;;;;;;3.60;1.10;;;7.50;93.50;;;;;;5011214;28;20046;-73
2023/02/04 12:30:24;;;;;;;2.22;0.80;;;7.20;95.50;;;;;;5005650;28;20049;-74
2023/02/04 12:32:50;;;;;;;2.83;0.98;;;7.10;95.50;;;;;;5007299;28;20057;-73
2023/02/04 12:35:15;;;;;;;4.20;0.90;;;7.30;94.90;;;;;;5028943;28;20098;-73
2023/02/04 12:37:41;;;;;;;1.98;1.15;;;7.40;95.90;;;;;;5041041;28;20042;-73
2023/02/04 12:40:07;;;;;;;1.55;0.93;;;7.10;94.40;;;;;;5019572;28;20049;-73
2023/02/04 12:42:33;;;;;;;3.00;1.02;;;7.40;93.70;;;;;;5029373;28;20080;-73
2023/02/04 12:44:59;;;;;;;2.67;1.05;;;7.60;94.90;;;;;;5017660;28;20077;-73
2023/02/04 12:47:27;;;;;;;1.48;0.63;;;7.70;93.10;;;;;;5024061;28;20049;-73
2023/02/04 12:49:53;;;;;;;3.95;0.98;;;7.90;92.40;;;;;;5003613;28;20045;-73
2023/02/04 12:52:19;;;;;;;2.45;0.93;;;7.60;92.00;;;;;;5023854;28;20336;-73
2023/02/04 12:54:45;;;;;;;2.88;0.90;;;9.00;90.60;;;;;;5029216;28;20049;-74
2023/02/04 12:57:13;;;;;;;3.83;1.40;;;10.20;78.30;;;;;;5002749;28;20416;-73